Time;durP1;ratioP1;P1;durP2;ratioP2;P2;SDS_P1;SDS_P2;PMS_P1;PMS_P2;Temp;Humidity;BMP_temperature;BMP_pressure;BME280_temperature;BME280_humidity;BME280_pressure;Samples;Min_cycle;Max_cycle;Signal;HPM_P1;HPM_P2
2023/03/01 00:02:39;;;;;;;1999.90;999.90;;;-0.50;99.90;;;;;;6758878;88;20224;-77
2023/03/01 00:12:40;;;;;;;1999.90;999.90;;;-0.60;99.90;;;;;;6757947;88;20343;-77
2023/03/01 00:22:40;;;;;;;1999.90;999.90;;;-0.70;99.90;;;;;;6758585;88;20249;-76
2023/03/01 00:32:41;;;;;;;1999.90;999.90;;;-0.80;99.90;;;;;;6757244;88;20304;-76
2023/03/01 00:42:41;;;;;;;1999.90;999.90;;;-0.90;99.90;;;;;;6756331;88;20269;-76
2023/03/01 00:52:42;;;;;;;1999.90;999.90;;;-0.80;99.90;;;;;;6758309;88;20346;-76
2023/03/01 01:02:43;;;;;;;1999.90;999.90;;;-0.80;99.90;;;;;;6757463;88;20200;-76
2023/03/01 01:12:46;;;;;;;1999.90;999.90;;;-1.00;99.90;;;;;;6747456;87;20302;-77
2023/03/01 01:22:47;;;;;;;1999.90;999.90;;;-1.10;99.90;;;;;;6739661;88;20196;-76
2023/03/01 01:32:47;;;;;;;1999.90;999.90;;;-1.20;99.90;;;;;;6739207;88;20562;-75
2023/03/01 01:42:48;;;;;;;1999.90;999.90;;;-1.20;99.90;;;;;;6751883;88;20274;-77
2023/03/01 01:52:51;;;;;;;1999.90;999.90;;;-1.20;99.90;;;;;;6759881;88;20196;-76
2023/03/01 02:02:59;;;;;;;1999.90;999.90;;;-1.30;99.90;;;;;;6760332;88;20171;-75
2023/03/01 02:13:02;;;;;;;1999.90;999.90;;;-1.30;99.90;;;;;;6749226;88;20669;-75
2023/03/01 02:23:03;;;;;;;1999.90;999.90;;;-1.40;99.90;;;;;;6749327;88;20346;-75
2023/03/01 02:33:04;;;;;;;1999.90;999.90;;;-1.50;99.90;;;;;;6743064;88;20764;-76
2023/03/01 02:43:09;;;;;;;1999.90;999.90;;;-1.60;99.90;;;;;;6743947;77;20177;-75
2023/03/01 02:53:19;;;;;;;1999.90;999.90;;;-1.70;99.90;;;;;;6739637;88;20202;-74
2023/03/01 03:03:21;;;;;;;1999.90;999.90;;;-1.60;99.90;;;;;;6735359;88;20249;-75
2023/03/01 03:13:22;;;;;;;1999.90;999.90;;;-1.80;99.90;;;;;;6735124;88;20197;-75
2023/03/01 03:23:23;;;;;;;1999.90;999.90;;;-1.80;99.90;;;;;;6735833;88;20274;-75
2023/03/01 03:33:24;;;;;;;1999.90;999.90;;;-1.90;99.90;;;;;;6735961;88;20785;-75
2023/03/01 03:43:24;;;;;;;1999.90;999.90;;;-1.90;99.90;;;;;;6747164;88;20206;-76
2023/03/01 03:53:27;;;;;;;1999.90;999.90;;;-1.90;99.90;;;;;;6751043;88;20381;-75
2023/03/01 04:03:29;;;;;;;1999.90;999.90;;;-2.10;99.90;;;;;;6730090;88;20664;-75
2023/03/01 04:13:30;;;;;;;1999.90;999.90;;;-2.30;99.90;;;;;;6734193;88;20214;-75
2023/03/01 04:23:30;;;;;;;1999.90;999.90;;;-2.30;99.90;;;;;;6731978;88;20189;-74
2023/03/01 04:33:31;;;;;;;1999.90;999.90;;;-2.50;99.90;;;;;;6735459;88;20189;-75
2023/03/01 04:43:31;;;;;;;1999.90;999.90;;;-2.60;99.90;;;;;;6737488;87;20246;-73
2023/03/01 04:53:32;;;;;;;1999.90;999.90;;;-2.60;99.90;;;;;;6737808;87;20192;-75
2023/03/01 05:03:33;;;;;;;1999.90;999.90;;;-2.60;99.90;;;;;;6736473;88;20229;-75
2023/03/01 05:13:34;;;;;;;1999.90;999.90;;;-2.60;99.90;;;;;;6736639;88;20236;-75
2023/03/01 05:23:34;;;;;;;1999.90;999.90;;;-2.70;99.90;;;;;;6733980;88;20660;-75
2023/03/01 05:33:37;;;;;;;1999.90;999.90;;;-2.60;99.90;;;;;;6732381;88;20197;-75
2023/03/01 05:43:38;;;;;;;1999.90;999.90;;;-2.70;99.90;;;;;;6735329;88;20184;-75
2023/03/01 05:53:39;;;;;;;1999.90;999.90;;;-2.80;99.90;;;;;;6732068;88;20191;-75
2023/03/01 06:03:39;;;;;;;1999.90;999.90;;;-2.80;99.90;;;;;;6739757;88;20172;-75
2023/03/01 06:13:44;;;;;;;1999.90;999.90;;;-2.80;99.90;;;;;;6737030;88;20247;-75
2023/03/01 06:23:44;;;;;;;1999.90;999.90;;;-2.80;99.90;;;;;;6737405;88;20356;-73
2023/03/01 06:33:45;;;;;;;1999.90;999.90;;;-2.70;99.90;;;;;;6735322;87;20181;-75
2023/03/01 06:43:45;;;;;;;1999.90;999.90;;;-2.90;99.90;;;;;;6733505;88;20218;-74
2023/03/01 06:53:46;;;;;;;1999.90;999.90;;;-2.90;99.90;;;;;;6731878;88;20170;-75
2023/03/01 07:03:47;;;;;;;1999.90;999.90;;;-2.80;99.90;;;;;;6730290;88;20184;-73
2023/03/01 07:13:47;;;;;;;1999.90;999.90;;;-2.70;99.90;;;;;;6735832;88;20222;-74
2023/03/01 07:23:48;;;;;;;1999.90;999.90;;;-2.40;99.90;;;;;;6734014;88;21010;-73
2023/03/01 07:33:49;;;;;;;1999.90;999.90;;;-2.30;99.90;;;;;;6735568;88;20502;-74
2023/03/01 07:43:50;;;;;;;1999.90;999.90;;;-2.10;99.90;;;;;;6738793;87;20202;-73
2023/03/01 07:53:50;;;;;;;1999.90;999.90;;;-1.90;99.90;;;;;;6739151;88;20207;-74
2023/03/01 08:03:51;;;;;;;1999.90;999.90;;;-1.40;99.90;;;;;;6736647;88;21097;-75
2023/03/01 08:13:51;;;;;;;1999.90;999.90;;;-0.10;99.90;;;;;;6742162;88;20323;-75
2023/03/01 08:23:52;;;;;;;1999.90;999.90;;;1.80;99.90;;;;;;6734948;88;20622;-75
2023/03/01 08:33:56;;;;;;;1999.90;999.90;;;1.40;99.90;;;;;;6732344;88;20331;-75
2023/03/01 08:55:01;;;;;;;1999.90;999.90;;;2.00;99.90;;;;;;6753475;88;20651;-77
2023/03/01 09:05:01;;;;;;;1999.90;999.90;;;2.20;99.90;;;;;;6752663;88;20207;-77
2023/03/01 09:15:02;;;;;;;1999.90;999.90;;;3.70;99.90;;;;;;6748314;88;20207;-77
2023/03/01 09:25:03;;;;;;;1999.90;999.90;;;4.60;99.90;;;;;;6751651;88;20263;-77
2023/03/01 09:35:04;;;;;;;1999.90;999.90;;;5.70;99.90;;;;;;6752219;88;20770;-77
2023/03/01 09:45:11;;;;;;;1999.90;999.90;;;6.60;99.90;;;;;;6751313;87;20675;-77
2023/03/01 09:55:28;;;;;;;1999.90;999.90;;;7.10;98.40;;;;;;6749241;88;20183;-76
2023/03/01 10:05:48;;;;;;;1999.90;999.90;;;7.50;97.60;;;;;;6746612;88;20325;-77
2023/03/01 10:15:57;;;;;;;1999.90;999.90;;;8.40;97.30;;;;;;6747467;88;20221;-77
2023/03/01 10:26:23;;;;;;;1999.90;999.90;;;9.40;95.60;;;;;;6750058;88;20247;-77
2023/03/01 10:36:24;;;;;;;1999.90;999.90;;;10.00;95.30;;;;;;6746996;88;20592;-77
2023/03/01 10:46:28;;;;;;;1999.90;999.90;;;11.50;93.30;;;;;;6749439;87;20804;-77
2023/03/01 10:56:45;;;;;;;1999.90;999.90;;;10.40;94.20;;;;;;6750504;88;20284;-77
2023/03/01 11:06:58;;;;;;;1999.90;999.90;;;11.30;92.50;;;;;;6755163;88;20199;-77
2023/03/01 11:17:11;;;;;;;1999.90;999.90;;;11.40;90.90;;;;;;6759961;88;20208;-78
2023/03/01 11:27:36;;;;;;;1999.90;999.90;;;11.70;90.90;;;;;;6774222;88;20263;-77
2023/03/01 11:38:15;;;;;;;1999.90;999.90;;;9.80;91.80;;;;;;6772542;88;20354;-78
2023/03/01 11:48:38;;;;;;;1999.90;999.90;;;10.60;91.60;;;;;;6761033;87;20306;-77
2023/03/01 11:58:52;;;;;;;1999.90;999.90;;;11.40;90.10;;;;;;6758362;88;20217;-77
2023/03/01 12:09:20;;;;;;;1999.90;999.90;;;12.00;89.60;;;;;;6760500;88;20218;-77
2023/03/01 12:20:13;;;;;;;1999.90;999.90;;;13.60;87.80;;;;;;6751223;88;20619;-77
2023/03/01 12:30:56;;;;;;;1999.90;999.90;;;14.80;84.20;;;;;;6760958;88;20230;-79
2023/03/01 12:41:34;;;;;;;1999.90;999.90;;;15.40;81.70;;;;;;6751790;88;20325;-79
2023/03/01 12:51:37;;;;;;;1999.90;999.90;;;15.10;80.30;;;;;;6744202;88;20208;-79
2023/03/01 13:02:13;;;;;;;1999.90;999.90;;;17.40;76.30;;;;;;6753848;88;21422;-77
2023/03/01 13:12:51;;;;;;;1999.90;999.90;;;18.30;74.10;;;;;;6752127;88;20176;-77
2023/03/01 13:23:01;;;;;;;1999.90;999.90;;;18.60;71.10;;;;;;6752789;88;20666;-79
2023/03/01 13:33:32;;;;;;;1999.90;999.90;;;18.10;70.50;;;;;;6757540;88;20298;-78
2023/03/01 13:43:36;;;;;;;1999.90;999.90;;;17.90;69.20;;;;;;6748693;88;20643;-76
2023/03/01 13:53:42;;;;;;;1999.90;999.90;;;18.30;68.00;;;;;;6751542;88;20325;-77
2023/03/01 14:03:42;;;;;;;1999.90;999.90;;;17.90;68.70;;;;;;6757128;88;20234;-78
2023/03/01 14:14:04;;;;;;;1999.90;999.90;;;18.10;68.20;;;;;;6760807;88;20209;-77
2023/03/01 14:24:05;;;;;;;1999.90;999.90;;;17.10;67.80;;;;;;6765228;88;20176;-77
2023/03/01 14:34:06;;;;;;;1999.90;999.90;;;16.50;68.10;;;;;;6766710;88;20200;-78
2023/03/01 14:44:12;;;;;;;1999.90;999.90;;;16.10;68.30;;;;;;6737037;77;20181;-77
2023/03/01 14:54:21;;;;;;;1999.90;999.90;;;15.60;68.20;;;;;;6723317;88;20300;-76
2023/03/01 15:04:23;;;;;;;1999.90;999.90;;;15.30;69.00;;;;;;6724422;88;20313;-77
2023/03/01 15:14:43;;;;;;;1999.90;999.90;;;15.00;68.30;;;;;;6730309;88;20734;-76
2023/03/01 15:24:50;;;;;;;1999.90;999.90;;;14.80;68.50;;;;;;6729494;88;20207;-76
2023/03/01 15:34:51;;;;;;;1999.90;999.90;;;14.60;68.20;;;;;;6724278;88;20186;-76
2023/03/01 15:45:11;;;;;;;1999.90;999.90;;;13.70;66.60;;;;;;6750704;87;20192;-76
2023/03/01 15:55:23;;;;;;;1999.90;999.90;;;13.30;67.60;;;;;;6767277;87;20771;-76
2023/03/01 16:05:25;;;;;;;1999.90;999.90;;;13.30;67.90;;;;;;6759722;87;20175;-76
2023/03/01 16:15:29;;;;;;;1999.90;999.90;;;12.80;68.00;;;;;;6761057;87;20231;-76
2023/03/01 16:25:32;;;;;;;1999.90;999.90;;;12.60;68.10;;;;;;6759650;87;20183;-76
2023/03/01 16:35:32;;;;;;;1999.90;999.90;;;11.80;68.70;;;;;;6765631;87;20188;-76
2023/03/01 16:45:35;;;;;;;1999.90;999.90;;;11.50;73.30;;;;;;6762131;87;20203;-76
2023/03/01 16:55:36;;;;;;;1999.90;999.90;;;10.80;76.10;;;;;;6771476;87;20256;-77
2023/03/01 17:05:40;;;;;;;1999.90;999.90;;;10.10;77.60;;;;;;6772390;87;20199;-78
2023/03/01 17:15:41;;;;;;;1999.90;999.90;;;9.50;79.90;;;;;;6775662;87;20193;-78
2023/03/01 17:25:44;;;;;;;1999.90;999.90;;;9.00;81.60;;;;;;6770570;87;20651;-77
2023/03/01 17:35:46;;;;;;;1999.90;999.90;;;8.20;82.50;;;;;;6768324;87;20187;-77
2023/03/01 17:45:47;;;;;;;1999.90;999.90;;;7.80;83.70;;;;;;6766697;87;20203;-77
2023/03/01 17:55:52;;;;;;;1999.90;999.90;;;7.50;83.80;;;;;;6768281;87;20185;-79
2023/03/01 18:05:53;;;;;;;1999.90;999.90;;;7.30;79.60;;;;;;6767897;87;20176;-79
2023/03/01 18:15:59;;;;;;;1999.90;999.90;;;7.20;78.80;;;;;;6786165;87;20195;-80
2023/03/01 18:26:03;;;;;;;1999.90;999.90;;;6.90;79.50;;;;;;6786188;87;20554;-78
2023/03/01 18:36:05;;;;;;;1999.90;999.90;;;6.70;80.30;;;;;;6774151;87;20202;-78
2023/03/01 18:46:06;;;;;;;1999.90;999.90;;;6.40;80.80;;;;;;6779914;87;20251;-78
2023/03/01 18:56:08;;;;;;;1999.90;999.90;;;6.20;80.60;;;;;;6784060;87;20176;-80
2023/03/01 19:06:08;;;;;;;1999.90;999.90;;;6.10;80.60;;;;;;6769885;87;20171;-78
2023/03/01 19:16:15;;;;;;;1999.90;999.90;;;6.00;80.70;;;;;;6775269;87;20218;-78
2023/03/01 19:26:18;;;;;;;1999.90;999.90;;;5.80;81.40;;;;;;6771994;87;20265;-79
2023/03/01 19:36:20;;;;;;;1999.90;999.90;;;5.50;82.10;;;;;;6776920;87;20519;-80
2023/03/01 19:46:20;;;;;;;1999.90;999.90;;;5.40;81.90;;;;;;6779193;87;20180;-78
2023/03/01 19:56:21;;;;;;;1999.90;999.90;;;5.20;83.20;;;;;;6771115;87;20731;-76
2023/03/01 20:06:22;;;;;;;1999.90;999.90;;;4.70;84.50;;;;;;6774750;87;20208;-78
2023/03/01 20:16:23;;;;;;;1999.90;999.90;;;4.50;87.50;;;;;;6779402;87;20202;-78
2023/03/01 20:26:25;;;;;;;1999.90;999.90;;;4.20;89.10;;;;;;6777261;87;20200;-77
2023/03/01 20:36:46;;;;;;;1999.90;999.90;;;4.00;90.40;;;;;;6773783;87;20737;-78
2023/03/01 20:46:46;;;;;;;1999.90;999.90;;;3.70;90.80;;;;;;6763731;87;20610;-76
2023/03/01 20:56:47;;;;;;;1999.90;999.90;;;3.60;91.90;;;;;;6766661;87;20206;-77
2023/03/01 21:06:48;;;;;;;1999.90;999.90;;;3.50;91.60;;;;;;6765297;87;20562;-76
2023/03/01 21:16:50;;;;;;;1999.90;999.90;;;3.30;91.90;;;;;;6773477;87;20593;-76
2023/03/01 21:26:51;;;;;;;1999.90;999.90;;;3.00;92.80;;;;;;6770970;87;20184;-76
2023/03/01 21:36:51;;;;;;;1999.90;999.90;;;2.90;92.70;;;;;;6766718;87;20225;-76
2023/03/01 21:46:53;;;;;;;1999.90;999.90;;;2.70;93.50;;;;;;6754348;87;20241;-76
2023/03/01 21:56:53;;;;;;;1999.90;999.90;;;2.60;94.20;;;;;;6758507;87;20256;-76
2023/03/01 22:06:54;;;;;;;1999.90;999.90;;;2.40;95.00;;;;;;6749964;87;20184;-76
2023/03/01 22:16:55;;;;;;;1999.90;999.90;;;2.20;96.00;;;;;;6751521;87;20617;-76
2023/03/01 22:26:56;;;;;;;1999.90;999.90;;;2.10;96.80;;;;;;6750416;87;20635;-77
2023/03/01 22:36:57;;;;;;;1999.90;999.90;;;2.10;97.30;;;;;;6749653;87;20202;-76
2023/03/01 22:46:58;;;;;;;1999.90;999.90;;;1.90;97.70;;;;;;6767591;87;20476;-76
2023/03/01 22:56:58;;;;;;;1999.90;999.90;;;1.80;99.20;;;;;;6767787;87;20199;-76
2023/03/01 23:06:59;;;;;;;1999.90;999.90;;;1.60;99.90;;;;;;6767071;87;21065;-76
2023/03/01 23:17:00;;;;;;;1999.90;999.90;;;1.60;99.90;;;;;;6770112;87;20690;-76
2023/03/01 23:27:01;;;;;;;1999.90;999.90;;;1.80;99.90;;;;;;6770939;87;20188;-76
2023/03/01 23:37:03;;;;;;;1999.90;999.90;;;1.60;99.90;;;;;;6765795;87;20228;-76
2023/03/01 23:47:03;;;;;;;1999.90;999.90;;;1.40;99.90;;;;;;6764908;87;20257;-77
2023/03/01 23:57:04;;;;;;;1999.90;999.90;;;1.20;99.90;;;;;;6758718;87;20642;-75
